createdAt,value
2019-05-05T00:04:34.745Z,79.90
2019-05-05T00:14:49.491Z,79.60
2019-05-05T00:24:54.473Z,79.90
2019-05-05T00:34:57.445Z,80.30
2019-05-05T00:45:00.420Z,79.40
2019-05-05T00:55:04.616Z,78.40
2019-05-05T01:05:18.494Z,77.90
2019-05-05T01:15:21.458Z,78.40
2019-05-05T01:25:25.374Z,78.70
2019-05-05T01:35:28.738Z,78.90
2019-05-05T01:45:31.842Z,78.70
2019-05-05T01:55:34.955Z,79.00
2019-05-05T02:05:37.885Z,78.50
2019-05-05T02:15:40.868Z,77.90
2019-05-05T02:25:44.761Z,77.90
2019-05-05T02:35:47.810Z,78.20
2019-05-05T02:46:17.780Z,77.70
2019-05-05T02:56:26.260Z,78.30
2019-05-05T03:06:29.310Z,79.10
2019-05-05T03:16:36.882Z,79.00
2019-05-05T03:26:40.325Z,79.00
2019-05-05T03:36:44.231Z,78.90
2019-05-05T03:46:47.484Z,79.90
2019-05-05T03:57:06.815Z,80.30
2019-05-05T04:07:09.784Z,79.50
2019-05-05T04:17:33.521Z,77.90
2019-05-05T04:27:36.194Z,77.30
2019-05-05T04:37:39.159Z,77.40
2019-05-05T04:47:44.994Z,76.70
2019-05-05T04:57:47.958Z,75.30
2019-05-05T05:07:50.949Z,74.50
2019-05-05T05:18:04.232Z,73.00
2019-05-05T05:28:07.245Z,70.90
2019-05-05T05:38:10.281Z,69.30
2019-05-05T05:48:34.244Z,67.50
2019-05-05T05:58:37.316Z,69.00
2019-05-05T06:08:40.290Z,66.80
2019-05-05T06:18:43.772Z,63.60
2019-05-05T06:28:46.868Z,61.90
2019-05-05T06:38:49.893Z,60.30
2019-05-05T06:48:53.851Z,59.80
2019-05-05T06:58:56.955Z,60.40
2019-05-05T07:08:59.934Z,59.50
2019-05-05T07:19:04.353Z,59.50
2019-05-05T07:29:07.573Z,60.00
2019-05-05T07:39:11.120Z,56.00
2019-05-05T07:49:14.114Z,57.40
2019-05-05T07:59:17.168Z,58.10
2019-05-05T08:09:22.618Z,56.20
2019-05-05T08:19:34.707Z,55.70
2019-05-05T08:29:43.812Z,53.00
2019-05-05T08:39:49.194Z,42.80
2019-05-05T08:49:53.717Z,40.10
2019-05-05T08:59:56.934Z,47.90
2019-05-05T09:09:59.905Z,47.20
2019-05-05T09:20:04.591Z,39.70
2019-05-05T09:30:10.109Z,37.40
2019-05-05T09:40:17.056Z,43.10
2019-05-05T09:50:20.233Z,36.30
2019-05-05T10:00:24.391Z,39.50
2019-05-05T10:10:27.615Z,40.30
2019-05-05T10:20:30.619Z,40.40
2019-05-05T10:30:33.807Z,39.30
2019-05-05T10:40:36.763Z,31.50
2019-05-05T10:50:39.789Z,31.70
2019-05-05T11:00:49.632Z,35.20
2019-05-05T11:10:52.645Z,32.50
2019-05-05T11:20:55.802Z,31.00
2019-05-05T11:30:59.114Z,25.90
2019-05-05T11:41:02.208Z,20.20
2019-05-05T11:51:06.310Z,24.60
2019-05-05T12:01:11.339Z,26.80
2019-05-05T12:11:15.090Z,26.70
2019-05-05T12:21:18.285Z,30.20
2019-05-05T12:31:24.886Z,38.10
2019-05-05T12:41:28.070Z,41.40
2019-05-05T12:51:31.195Z,41.20
2019-05-05T13:01:36.933Z,33.50
2019-05-05T13:11:39.903Z,30.40
2019-05-05T13:22:01.033Z,31.80
2019-05-05T13:32:04.128Z,32.90
2019-05-05T13:42:07.133Z,38.20
2019-05-05T13:52:10.247Z,30.10
2019-05-05T14:02:13.756Z,31.40
2019-05-05T14:12:17.544Z,35.60
2019-05-05T14:22:20.547Z,33.10
2019-05-05T14:32:27.329Z,33.40
2019-05-05T14:42:30.411Z,32.00
2019-05-05T14:52:33.521Z,29.40
2019-05-05T15:02:36.586Z,29.60
2019-05-05T15:12:44.690Z,30.30
2019-05-05T15:22:47.812Z,31.00
2019-05-05T15:32:50.814Z,33.20
2019-05-05T15:42:54.456Z,34.20
2019-05-05T15:52:57.658Z,34.10
2019-05-05T16:03:00.664Z,37.60
2019-05-05T16:13:04.456Z,38.80
2019-05-05T16:23:14.431Z,37.90
2019-05-05T16:37:33.513Z,39.60
2019-05-05T16:47:39.143Z,40.40
2019-05-05T16:57:43.744Z,39.40
2019-05-05T17:07:47.010Z,40.00
2019-05-05T17:17:56.303Z,38.30
2019-05-05T17:28:01.446Z,40.00
2019-05-05T17:38:13.769Z,41.30
2019-05-05T17:48:27.131Z,43.70
2019-05-05T17:58:30.288Z,44.60
2019-05-05T18:08:45.906Z,45.90
2019-05-05T18:18:49.206Z,47.80
2019-05-05T18:28:54.114Z,49.20
2019-05-05T18:38:57.570Z,51.10
2019-05-05T18:49:00.667Z,53.90
2019-05-05T18:59:06.569Z,54.60
2019-05-05T19:09:11.032Z,55.10
2019-05-05T19:19:14.369Z,56.90
2019-05-05T19:29:17.419Z,58.70
2019-05-05T19:39:20.455Z,61.90
2019-05-05T19:49:24.197Z,64.60
2019-05-05T19:59:27.331Z,67.60
2019-05-05T20:09:30.320Z,70.20
2019-05-05T20:19:54.661Z,72.20
2019-05-05T20:29:57.764Z,73.40
2019-05-05T20:40:01.347Z,74.90
2019-05-05T20:50:04.896Z,77.50
2019-05-05T21:00:10.193Z,78.60
2019-05-05T21:10:15.292Z,79.90
2019-05-05T21:20:18.538Z,81.20
2019-05-05T21:30:23.715Z,82.10
2019-05-05T21:40:26.972Z,81.70
2019-05-05T21:50:35.515Z,82.40
2019-05-05T22:00:59.735Z,83.10
2019-05-05T22:11:03.881Z,84.00
2019-05-05T22:21:19.417Z,85.40
2019-05-05T22:31:23.799Z,85.50
2019-05-05T22:41:27.938Z,85.80
2019-05-05T22:51:33.824Z,87.40
2019-05-05T23:01:37.113Z,87.30
2019-05-05T23:11:40.113Z,87.20
2019-05-05T23:21:48.802Z,86.10
2019-05-05T23:31:53.704Z,86.80
2019-05-05T23:41:56.842Z,87.40
2019-05-05T23:51:59.814Z,87.50
